sensor_id;sensor_type;location;lat;lon;timestamp;P1;durP1;ratioP1;P2;durP2;ratioP2
75295;SDS011;64623;44.738;37.804;2023-09-12T00:00:45;10.38;;;8.45;;
75295;SDS011;64623;44.738;37.804;2023-09-12T00:01:48;15.07;;;8.98;;
75295;SDS011;64623;44.738;37.804;2023-09-12T00:02:51;11.77;;;8.98;;
75295;SDS011;64623;44.738;37.804;2023-09-12T00:03:54;11.25;;;8.10;;
75295;SDS011;64623;44.738;37.804;2023-09-12T00:04:57;9.52;;;8.30;;
75295;SDS011;64623;44.738;37.804;2023-09-12T00:06:00;10.45;;;8.13;;
75295;SDS011;64623;44.738;37.804;2023-09-12T00:07:04;9.68;;;7.70;;
75295;SDS011;64623;44.738;37.804;2023-09-12T00:08:08;10.57;;;8.55;;
75295;SDS011;64623;44.738;37.804;2023-09-12T00:09:11;12.45;;;9.32;;
75295;SDS011;64623;44.738;37.804;2023-09-12T00:10:14;10.55;;;8.32;;
75295;SDS011;64623;44.738;37.804;2023-09-12T00:11:16;11.40;;;8.13;;
75295;SDS011;64623;44.738;37.804;2023-09-12T00:12:21;11.85;;;8.10;;
75295;SDS011;64623;44.738;37.804;2023-09-12T00:13:25;10.75;;;8.10;;
75295;SDS011;64623;44.738;37.804;2023-09-12T00:14:28;10.07;;;8.43;;
75295;SDS011;64623;44.738;37.804;2023-09-12T00:15:31;10.55;;;8.07;;
75295;SDS011;64623;44.738;37.804;2023-09-12T00:16:34;13.10;;;8.88;;
75295;SDS011;64623;44.738;37.804;2023-09-12T00:17:36;11.45;;;8.82;;
75295;SDS011;64623;44.738;37.804;2023-09-12T00:18:39;11.40;;;8.43;;
75295;SDS011;64623;44.738;37.804;2023-09-12T00:19:43;12.68;;;9.07;;
75295;SDS011;64623;44.738;37.804;2023-09-12T00:20:46;10.90;;;9.02;;
75295;SDS011;64623;44.738;37.804;2023-09-12T00:21:48;12.02;;;8.93;;
75295;SDS011;64623;44.738;37.804;2023-09-12T00:22:52;10.88;;;8.63;;
75295;SDS011;64623;44.738;37.804;2023-09-12T00:23:56;11.60;;;8.43;;
75295;SDS011;64623;44.738;37.804;2023-09-12T00:24:59;12.13;;;8.50;;
75295;SDS011;64623;44.738;37.804;2023-09-12T00:26:04;13.40;;;8.75;;
75295;SDS011;64623;44.738;37.804;2023-09-12T00:27:07;10.43;;;8.30;;
75295;SDS011;64623;44.738;37.804;2023-09-12T00:28:10;10.65;;;8.05;;
75295;SDS011;64623;44.738;37.804;2023-09-12T00:29:13;15.80;;;9.45;;
75295;SDS011;64623;44.738;37.804;2023-09-12T00:30:15;17.65;;;9.93;;
75295;SDS011;64623;44.738;37.804;2023-09-12T00:31:18;9.80;;;8.43;;
75295;SDS011;64623;44.738;37.804;2023-09-12T00:32:21;13.07;;;9.07;;
75295;SDS011;64623;44.738;37.804;2023-09-12T00:33:24;15.05;;;9.38;;
75295;SDS011;64623;44.738;37.804;2023-09-12T00:34:27;13.43;;;8.55;;
75295;SDS011;64623;44.738;37.804;2023-09-12T00:35:30;11.13;;;8.63;;
75295;SDS011;64623;44.738;37.804;2023-09-12T00:36:32;11.65;;;8.93;;
75295;SDS011;64623;44.738;37.804;2023-09-12T00:37:35;12.80;;;9.32;;
75295;SDS011;64623;44.738;37.804;2023-09-12T00:38:39;12.48;;;8.32;;
75295;SDS011;64623;44.738;37.804;2023-09-12T00:39:42;12.23;;;9.30;;
75295;SDS011;64623;44.738;37.804;2023-09-12T00:40:45;12.95;;;8.63;;
75295;SDS011;64623;44.738;37.804;2023-09-12T00:41:47;14.27;;;8.68;;
75295;SDS011;64623;44.738;37.804;2023-09-12T00:42:50;12.50;;;10.20;;
75295;SDS011;64623;44.738;37.804;2023-09-12T00:43:53;11.32;;;8.60;;
75295;SDS011;64623;44.738;37.804;2023-09-12T00:44:56;14.98;;;8.75;;
75295;SDS011;64623;44.738;37.804;2023-09-12T00:45:59;9.95;;;8.48;;
75295;SDS011;64623;44.738;37.804;2023-09-12T00:47:02;12.40;;;8.57;;
75295;SDS011;64623;44.738;37.804;2023-09-12T00:48:05;12.55;;;8.90;;
75295;SDS011;64623;44.738;37.804;2023-09-12T00:49:09;12.52;;;9.27;;
75295;SDS011;64623;44.738;37.804;2023-09-12T00:50:14;11.43;;;9.32;;
75295;SDS011;64623;44.738;37.804;2023-09-12T00:51:19;11.65;;;8.77;;
75295;SDS011;64623;44.738;37.804;2023-09-12T00:52:24;10.73;;;8.30;;
75295;SDS011;64623;44.738;37.804;2023-09-12T00:53:28;13.60;;;9.43;;
75295;SDS011;64623;44.738;37.804;2023-09-12T00:54:31;12.07;;;8.32;;
75295;SDS011;64623;44.738;37.804;2023-09-12T00:55:34;11.38;;;8.10;;
75295;SDS011;64623;44.738;37.804;2023-09-12T00:56:40;12.45;;;8.77;;
75295;SDS011;64623;44.738;37.804;2023-09-12T00:57:43;10.70;;;8.20;;
75295;SDS011;64623;44.738;37.804;2023-09-12T00:58:46;10.55;;;9.23;;
75295;SDS011;64623;44.738;37.804;2023-09-12T00:59:49;12.20;;;8.43;;
75295;SDS011;64623;44.738;37.804;2023-09-12T01:00:53;11.43;;;8.25;;
75295;SDS011;64623;44.738;37.804;2023-09-12T01:01:56;14.18;;;8.10;;
75295;SDS011;64623;44.738;37.804;2023-09-12T01:03:00;10.90;;;8.50;;
75295;SDS011;64623;44.738;37.804;2023-09-12T01:04:03;11.07;;;8.45;;
75295;SDS011;64623;44.738;37.804;2023-09-12T01:05:06;12.23;;;8.25;;
75295;SDS011;64623;44.738;37.804;2023-09-12T01:06:10;11.27;;;8.80;;
75295;SDS011;64623;44.738;37.804;2023-09-12T01:07:13;10.48;;;7.82;;
75295;SDS011;64623;44.738;37.804;2023-09-12T01:08:17;10.68;;;8.75;;
75295;SDS011;64623;44.738;37.804;2023-09-12T01:09:20;11.18;;;8.52;;
75295;SDS011;64623;44.738;37.804;2023-09-12T01:10:23;10.35;;;8.43;;
75295;SDS011;64623;44.738;37.804;2023-09-12T01:11:26;11.23;;;8.15;;
75295;SDS011;64623;44.738;37.804;2023-09-12T01:12:29;11.77;;;8.10;;
75295;SDS011;64623;44.738;37.804;2023-09-12T01:13:32;11.90;;;7.95;;
75295;SDS011;64623;44.738;37.804;2023-09-12T01:14:35;13.05;;;7.80;;
75295;SDS011;64623;44.738;37.804;2023-09-12T01:15:38;12.27;;;8.25;;
75295;SDS011;64623;44.738;37.804;2023-09-12T01:16:41;9.70;;;8.15;;
75295;SDS011;64623;44.738;37.804;2023-09-12T01:17:44;9.90;;;7.32;;
75295;SDS011;64623;44.738;37.804;2023-09-12T01:18:48;11.50;;;8.23;;
75295;SDS011;64623;44.738;37.804;2023-09-12T01:19:51;10.60;;;7.85;;
75295;SDS011;64623;44.738;37.804;2023-09-12T01:21:02;10.73;;;8.85;;
75295;SDS011;64623;44.738;37.804;2023-09-12T01:22:40;10.35;;;8.02;;
75295;SDS011;64623;44.738;37.804;2023-09-12T01:27:54;11.25;;;7.43;;
75295;SDS011;64623;44.738;37.804;2023-09-12T01:29:02;9.65;;;7.72;;
75295;SDS011;64623;44.738;37.804;2023-09-12T01:30:08;11.77;;;7.22;;
75295;SDS011;64623;44.738;37.804;2023-09-12T01:31:12;9.63;;;7.60;;
75295;SDS011;64623;44.738;37.804;2023-09-12T01:32:18;10.15;;;7.10;;
75295;SDS011;64623;44.738;37.804;2023-09-12T01:33:22;10.55;;;8.32;;
75295;SDS011;64623;44.738;37.804;2023-09-12T01:34:24;10.40;;;7.03;;
75295;SDS011;64623;44.738;37.804;2023-09-12T01:35:27;9.50;;;7.65;;
75295;SDS011;64623;44.738;37.804;2023-09-12T01:36:30;9.48;;;7.53;;
75295;SDS011;64623;44.738;37.804;2023-09-12T01:37:33;10.88;;;7.28;;
75295;SDS011;64623;44.738;37.804;2023-09-12T01:38:36;9.50;;;7.75;;
75295;SDS011;64623;44.738;37.804;2023-09-12T01:39:40;11.15;;;7.15;;
75295;SDS011;64623;44.738;37.804;2023-09-12T01:40:46;9.45;;;6.63;;
75295;SDS011;64623;44.738;37.804;2023-09-12T01:41:51;9.55;;;6.65;;
75295;SDS011;64623;44.738;37.804;2023-09-12T01:42:55;11.30;;;7.60;;
75295;SDS011;64623;44.738;37.804;2023-09-12T01:43:59;9.70;;;7.25;;
75295;SDS011;64623;44.738;37.804;2023-09-12T01:45:04;9.55;;;7.32;;
75295;SDS011;64623;44.738;37.804;2023-09-12T01:46:09;11.15;;;7.32;;
75295;SDS011;64623;44.738;37.804;2023-09-12T01:47:12;11.30;;;7.40;;
75295;SDS011;64623;44.738;37.804;2023-09-12T01:48:18;10.13;;;8.18;;
75295;SDS011;64623;44.738;37.804;2023-09-12T01:49:23;9.98;;;7.05;;
75295;SDS011;64623;44.738;37.804;2023-09-12T01:50:28;12.13;;;7.22;;
75295;SDS011;64623;44.738;37.804;2023-09-12T01:51:31;10.23;;;7.35;;
75295;SDS011;64623;44.738;37.804;2023-09-12T01:52:35;10.10;;;7.45;;
75295;SDS011;64623;44.738;37.804;2023-09-12T01:53:38;11.75;;;8.00;;
75295;SDS011;64623;44.738;37.804;2023-09-12T01:54:42;10.45;;;7.03;;
75295;SDS011;64623;44.738;37.804;2023-09-12T01:55:47;8.70;;;7.65;;
75295;SDS011;64623;44.738;37.804;2023-09-12T01:56:50;11.52;;;7.63;;
75295;SDS011;64623;44.738;37.804;2023-09-12T01:57:53;10.70;;;7.75;;
75295;SDS011;64623;44.738;37.804;2023-09-12T01:58:57;9.32;;;6.82;;
75295;SDS011;64623;44.738;37.804;2023-09-12T02:00:01;9.68;;;7.05;;
75295;SDS011;64623;44.738;37.804;2023-09-12T02:01:06;10.20;;;7.93;;
75295;SDS011;64623;44.738;37.804;2023-09-12T02:02:09;10.32;;;7.03;;
75295;SDS011;64623;44.738;37.804;2023-09-12T02:03:12;9.32;;;6.68;;
75295;SDS011;64623;44.738;37.804;2023-09-12T02:04:15;9.88;;;7.18;;
75295;SDS011;64623;44.738;37.804;2023-09-12T02:05:21;14.32;;;7.95;;
75295;SDS011;64623;44.738;37.804;2023-09-12T02:06:25;9.15;;;7.47;;
75295;SDS011;64623;44.738;37.804;2023-09-12T02:07:28;11.48;;;8.23;;
75295;SDS011;64623;44.738;37.804;2023-09-12T02:08:34;11.77;;;8.07;;
75295;SDS011;64623;44.738;37.804;2023-09-12T02:09:37;10.80;;;8.10;;
75295;SDS011;64623;44.738;37.804;2023-09-12T02:10:40;11.75;;;7.57;;
75295;SDS011;64623;44.738;37.804;2023-09-12T02:11:43;15.02;;;8.13;;
75295;SDS011;64623;44.738;37.804;2023-09-12T02:12:47;20.55;;;8.60;;
75295;SDS011;64623;44.738;37.804;2023-09-12T02:13:49;10.48;;;7.50;;
75295;SDS011;64623;44.738;37.804;2023-09-12T02:14:52;11.63;;;8.27;;
75295;SDS011;64623;44.738;37.804;2023-09-12T02:15:59;12.70;;;8.05;;
75295;SDS011;64623;44.738;37.804;2023-09-12T02:17:02;14.35;;;7.93;;
75295;SDS011;64623;44.738;37.804;2023-09-12T02:18:05;10.27;;;6.93;;
75295;SDS011;64623;44.738;37.804;2023-09-12T02:19:08;9.95;;;7.20;;
75295;SDS011;64623;44.738;37.804;2023-09-12T02:20:11;10.50;;;7.78;;
75295;SDS011;64623;44.738;37.804;2023-09-12T02:21:14;10.45;;;7.18;;
75295;SDS011;64623;44.738;37.804;2023-09-12T02:22:18;10.43;;;7.50;;
75295;SDS011;64623;44.738;37.804;2023-09-12T02:23:21;10.50;;;7.80;;
75295;SDS011;64623;44.738;37.804;2023-09-12T02:24:24;12.07;;;8.25;;
75295;SDS011;64623;44.738;37.804;2023-09-12T02:25:27;12.23;;;7.70;;
75295;SDS011;64623;44.738;37.804;2023-09-12T02:26:30;13.25;;;7.72;;
75295;SDS011;64623;44.738;37.804;2023-09-12T02:28:40;10.52;;;8.07;;
75295;SDS011;64623;44.738;37.804;2023-09-12T02:29:43;9.63;;;6.97;;
75295;SDS011;64623;44.738;37.804;2023-09-12T02:30:46;10.63;;;7.65;;
75295;SDS011;64623;44.738;37.804;2023-09-12T02:31:49;10.00;;;8.18;;
75295;SDS011;64623;44.738;37.804;2023-09-12T02:32:52;10.93;;;8.18;;
75295;SDS011;64623;44.738;37.804;2023-09-12T02:33:55;12.38;;;7.25;;
75295;SDS011;64623;44.738;37.804;2023-09-12T02:34:58;12.18;;;7.68;;
75295;SDS011;64623;44.738;37.804;2023-09-12T02:36:01;10.95;;;8.27;;
75295;SDS011;64623;44.738;37.804;2023-09-12T02:37:04;10.32;;;7.75;;
75295;SDS011;64623;44.738;37.804;2023-09-12T02:38:08;13.80;;;7.70;;
75295;SDS011;64623;44.738;37.804;2023-09-12T02:39:11;11.00;;;8.30;;
75295;SDS011;64623;44.738;37.804;2023-09-12T02:40:14;8.90;;;7.55;;
75295;SDS011;64623;44.738;37.804;2023-09-12T02:41:17;11.77;;;7.45;;
75295;SDS011;64623;44.738;37.804;2023-09-12T02:42:20;11.27;;;7.78;;
75295;SDS011;64623;44.738;37.804;2023-09-12T02:43:23;12.40;;;7.43;;
75295;SDS011;64623;44.738;37.804;2023-09-12T02:44:25;11.80;;;8.60;;
75295;SDS011;64623;44.738;37.804;2023-09-12T02:45:28;11.10;;;8.25;;
75295;SDS011;64623;44.738;37.804;2023-09-12T02:46:31;10.18;;;8.07;;
75295;SDS011;64623;44.738;37.804;2023-09-12T02:47:34;11.90;;;7.88;;
75295;SDS011;64623;44.738;37.804;2023-09-12T02:48:37;10.40;;;8.07;;
75295;SDS011;64623;44.738;37.804;2023-09-12T02:49:41;10.07;;;8.27;;
75295;SDS011;64623;44.738;37.804;2023-09-12T02:50:44;10.68;;;7.38;;
75295;SDS011;64623;44.738;37.804;2023-09-12T02:51:47;10.55;;;8.57;;
75295;SDS011;64623;44.738;37.804;2023-09-12T02:52:50;10.57;;;8.40;;
75295;SDS011;64623;44.738;37.804;2023-09-12T02:53:53;10.88;;;8.52;;
75295;SDS011;64623;44.738;37.804;2023-09-12T02:54:56;10.82;;;8.27;;
75295;SDS011;64623;44.738;37.804;2023-09-12T02:55:58;11.30;;;8.05;;
75295;SDS011;64623;44.738;37.804;2023-09-12T02:57:01;10.27;;;8.27;;
75295;SDS011;64623;44.738;37.804;2023-09-12T02:58:04;11.75;;;7.97;;
75295;SDS011;64623;44.738;37.804;2023-09-12T02:59:07;10.60;;;8.27;;
75295;SDS011;64623;44.738;37.804;2023-09-12T03:00:10;13.18;;;7.78;;
75295;SDS011;64623;44.738;37.804;2023-09-12T03:01:14;9.13;;;7.80;;
75295;SDS011;64623;44.738;37.804;2023-09-12T03:02:21;11.60;;;8.40;;
75295;SDS011;64623;44.738;37.804;2023-09-12T03:03:24;10.77;;;8.25;;
75295;SDS011;64623;44.738;37.804;2023-09-12T03:04:27;11.60;;;8.20;;
75295;SDS011;64623;44.738;37.804;2023-09-12T03:05:31;10.93;;;8.30;;
75295;SDS011;64623;44.738;37.804;2023-09-12T03:06:34;11.68;;;7.93;;
75295;SDS011;64623;44.738;37.804;2023-09-12T03:07:38;9.75;;;8.30;;
75295;SDS011;64623;44.738;37.804;2023-09-12T03:08:41;12.85;;;8.63;;
75295;SDS011;64623;44.738;37.804;2023-09-12T03:09:44;12.38;;;9.27;;
75295;SDS011;64623;44.738;37.804;2023-09-12T03:10:57;10.02;;;7.78;;
75295;SDS011;64623;44.738;37.804;2023-09-12T03:12:03;11.55;;;8.63;;
75295;SDS011;64623;44.738;37.804;2023-09-12T03:13:06;10.90;;;7.88;;
75295;SDS011;64623;44.738;37.804;2023-09-12T03:14:11;9.82;;;7.95;;
75295;SDS011;64623;44.738;37.804;2023-09-12T03:15:13;12.80;;;7.75;;
75295;SDS011;64623;44.738;37.804;2023-09-12T03:16:16;10.48;;;7.40;;
75295;SDS011;64623;44.738;37.804;2023-09-12T03:17:20;10.57;;;7.85;;
75295;SDS011;64623;44.738;37.804;2023-09-12T03:18:23;12.82;;;8.60;;
75295;SDS011;64623;44.738;37.804;2023-09-12T03:19:26;10.05;;;7.50;;
75295;SDS011;64623;44.738;37.804;2023-09-12T03:20:29;12.77;;;7.97;;
75295;SDS011;64623;44.738;37.804;2023-09-12T03:21:32;9.73;;;7.85;;
75295;SDS011;64623;44.738;37.804;2023-09-12T03:22:34;9.85;;;7.38;;
75295;SDS011;64623;44.738;37.804;2023-09-12T03:23:41;11.73;;;7.93;;
75295;SDS011;64623;44.738;37.804;2023-09-12T03:24:44;9.68;;;7.63;;
75295;SDS011;64623;44.738;37.804;2023-09-12T03:25:47;9.90;;;8.55;;
75295;SDS011;64623;44.738;37.804;2023-09-12T03:26:51;11.60;;;8.43;;
75295;SDS011;64623;44.738;37.804;2023-09-12T03:27:54;9.95;;;7.97;;
75295;SDS011;64623;44.738;37.804;2023-09-12T03:28:57;10.65;;;8.73;;
75295;SDS011;64623;44.738;37.804;2023-09-12T03:29:59;11.15;;;8.48;;
75295;SDS011;64623;44.738;37.804;2023-09-12T03:31:07;9.57;;;8.57;;
75295;SDS011;64623;44.738;37.804;2023-09-12T03:32:11;12.55;;;8.85;;
75295;SDS011;64623;44.738;37.804;2023-09-12T03:33:14;12.95;;;8.90;;
75295;SDS011;64623;44.738;37.804;2023-09-12T03:34:17;10.93;;;8.80;;
75295;SDS011;64623;44.738;37.804;2023-09-12T03:35:20;11.38;;;8.80;;
75295;SDS011;64623;44.738;37.804;2023-09-12T03:36:23;11.07;;;8.70;;
75295;SDS011;64623;44.738;37.804;2023-09-12T03:37:26;11.95;;;8.40;;
75295;SDS011;64623;44.738;37.804;2023-09-12T03:38:31;12.32;;;9.35;;
75295;SDS011;64623;44.738;37.804;2023-09-12T03:39:34;10.52;;;8.45;;
75295;SDS011;64623;44.738;37.804;2023-09-12T03:40:37;11.93;;;9.20;;
75295;SDS011;64623;44.738;37.804;2023-09-12T03:41:40;11.27;;;8.55;;
75295;SDS011;64623;44.738;37.804;2023-09-12T03:42:43;12.10;;;9.40;;
75295;SDS011;64623;44.738;37.804;2023-09-12T03:43:45;11.98;;;8.43;;
75295;SDS011;64623;44.738;37.804;2023-09-12T03:44:49;11.55;;;8.77;;
75295;SDS011;64623;44.738;37.804;2023-09-12T03:45:52;12.05;;;9.27;;
75295;SDS011;64623;44.738;37.804;2023-09-12T03:46:56;11.25;;;8.32;;
75295;SDS011;64623;44.738;37.804;2023-09-12T03:48:00;12.02;;;9.27;;
75295;SDS011;64623;44.738;37.804;2023-09-12T03:49:03;10.52;;;8.80;;
75295;SDS011;64623;44.738;37.804;2023-09-12T03:50:06;12.63;;;9.02;;
75295;SDS011;64623;44.738;37.804;2023-09-12T03:51:09;10.60;;;9.50;;
75295;SDS011;64623;44.738;37.804;2023-09-12T03:52:12;11.93;;;8.55;;
75295;SDS011;64623;44.738;37.804;2023-09-12T03:53:15;11.88;;;9.85;;
75295;SDS011;64623;44.738;37.804;2023-09-12T03:54:18;14.15;;;9.15;;
75295;SDS011;64623;44.738;37.804;2023-09-12T03:55:21;12.93;;;8.80;;
75295;SDS011;64623;44.738;37.804;2023-09-12T03:56:24;12.45;;;9.13;;
75295;SDS011;64623;44.738;37.804;2023-09-12T03:57:27;9.68;;;8.68;;
75295;SDS011;64623;44.738;37.804;2023-09-12T03:58:30;10.88;;;8.98;;
75295;SDS011;64623;44.738;37.804;2023-09-12T03:59:33;9.93;;;8.68;;
75295;SDS011;64623;44.738;37.804;2023-09-12T04:00:36;11.45;;;8.73;;
75295;SDS011;64623;44.738;37.804;2023-09-12T04:01:39;11.45;;;9.30;;
75295;SDS011;64623;44.738;37.804;2023-09-12T04:02:42;10.80;;;8.93;;
75295;SDS011;64623;44.738;37.804;2023-09-12T04:03:45;11.18;;;8.63;;
75295;SDS011;64623;44.738;37.804;2023-09-12T04:04:49;11.88;;;8.57;;
75295;SDS011;64623;44.738;37.804;2023-09-12T04:05:54;13.93;;;9.15;;
75295;SDS011;64623;44.738;37.804;2023-09-12T04:06:57;11.23;;;9.57;;
75295;SDS011;64623;44.738;37.804;2023-09-12T04:08:00;13.70;;;8.88;;
75295;SDS011;64623;44.738;37.804;2023-09-12T04:09:02;10.70;;;8.57;;
75295;SDS011;64623;44.738;37.804;2023-09-12T04:10:05;10.98;;;6.90;;
75295;SDS011;64623;44.738;37.804;2023-09-12T04:11:08;13.77;;;8.77;;
75295;SDS011;64623;44.738;37.804;2023-09-12T04:12:13;12.20;;;8.57;;
75295;SDS011;64623;44.738;37.804;2023-09-12T04:13:15;12.35;;;8.73;;
75295;SDS011;64623;44.738;37.804;2023-09-12T04:14:18;10.82;;;8.07;;
75295;SDS011;64623;44.738;37.804;2023-09-12T04:15:21;14.27;;;8.80;;
75295;SDS011;64623;44.738;37.804;2023-09-12T04:16:24;15.90;;;9.45;;
75295;SDS011;64623;44.738;37.804;2023-09-12T04:17:27;13.10;;;8.00;;
75295;SDS011;64623;44.738;37.804;2023-09-12T04:18:30;15.68;;;8.77;;
75295;SDS011;64623;44.738;37.804;2023-09-12T04:19:33;14.85;;;8.63;;
75295;SDS011;64623;44.738;37.804;2023-09-12T04:20:37;13.95;;;9.65;;
75295;SDS011;64623;44.738;37.804;2023-09-12T04:21:40;13.80;;;9.77;;
75295;SDS011;64623;44.738;37.804;2023-09-12T04:22:42;11.93;;;8.98;;
75295;SDS011;64623;44.738;37.804;2023-09-12T04:23:46;15.68;;;8.80;;
75295;SDS011;64623;44.738;37.804;2023-09-12T04:24:49;14.10;;;9.07;;
75295;SDS011;64623;44.738;37.804;2023-09-12T04:25:51;11.93;;;9.35;;
75295;SDS011;64623;44.738;37.804;2023-09-12T04:26:54;11.18;;;9.48;;
75295;SDS011;64623;44.738;37.804;2023-09-12T04:27:57;12.95;;;8.82;;
75295;SDS011;64623;44.738;37.804;2023-09-12T04:29:00;12.75;;;8.65;;
75295;SDS011;64623;44.738;37.804;2023-09-12T04:30:04;11.52;;;9.35;;
75295;SDS011;64623;44.738;37.804;2023-09-12T04:31:07;13.77;;;8.85;;
75295;SDS011;64623;44.738;37.804;2023-09-12T04:32:11;13.20;;;8.82;;
75295;SDS011;64623;44.738;37.804;2023-09-12T04:33:14;14.27;;;9.13;;
75295;SDS011;64623;44.738;37.804;2023-09-12T04:34:17;11.05;;;8.07;;
75295;SDS011;64623;44.738;37.804;2023-09-12T04:35:19;10.60;;;8.85;;
75295;SDS011;64623;44.738;37.804;2023-09-12T04:36:22;13.77;;;9.00;;
75295;SDS011;64623;44.738;37.804;2023-09-12T04:37:25;12.65;;;9.18;;
75295;SDS011;64623;44.738;37.804;2023-09-12T04:38:28;12.43;;;9.45;;
75295;SDS011;64623;44.738;37.804;2023-09-12T04:39:31;12.88;;;8.27;;
75295;SDS011;64623;44.738;37.804;2023-09-12T04:40:34;10.38;;;8.70;;
75295;SDS011;64623;44.738;37.804;2023-09-12T04:41:37;11.48;;;8.65;;
75295;SDS011;64623;44.738;37.804;2023-09-12T04:42:40;9.13;;;8.18;;
75295;SDS011;64623;44.738;37.804;2023-09-12T04:43:43;10.80;;;8.15;;
75295;SDS011;64623;44.738;37.804;2023-09-12T04:44:49;11.38;;;7.85;;
75295;SDS011;64623;44.738;37.804;2023-09-12T04:45:52;15.75;;;8.10;;
75295;SDS011;64623;44.738;37.804;2023-09-12T04:46:54;11.68;;;8.45;;
75295;SDS011;64623;44.738;37.804;2023-09-12T04:47:58;8.63;;;7.18;;
75295;SDS011;64623;44.738;37.804;2023-09-12T04:49:01;10.35;;;7.88;;
75295;SDS011;64623;44.738;37.804;2023-09-12T04:50:04;10.40;;;8.02;;
75295;SDS011;64623;44.738;37.804;2023-09-12T04:51:07;10.00;;;8.07;;
75295;SDS011;64623;44.738;37.804;2023-09-12T04:52:10;11.63;;;8.43;;
75295;SDS011;64623;44.738;37.804;2023-09-12T04:53:13;9.05;;;7.78;;
75295;SDS011;64623;44.738;37.804;2023-09-12T04:54:16;9.35;;;8.15;;
75295;SDS011;64623;44.738;37.804;2023-09-12T04:55:18;11.50;;;7.70;;
75295;SDS011;64623;44.738;37.804;2023-09-12T04:56:21;9.15;;;7.93;;
75295;SDS011;64623;44.738;37.804;2023-09-12T04:57:26;12.07;;;8.30;;
75295;SDS011;64623;44.738;37.804;2023-09-12T04:58:33;9.57;;;7.72;;
75295;SDS011;64623;44.738;37.804;2023-09-12T04:59:35;10.07;;;7.60;;
75295;SDS011;64623;44.738;37.804;2023-09-12T05:00:39;12.00;;;7.78;;
75295;SDS011;64623;44.738;37.804;2023-09-12T05:01:42;9.45;;;7.60;;
75295;SDS011;64623;44.738;37.804;2023-09-12T05:02:45;10.98;;;7.80;;
75295;SDS011;64623;44.738;37.804;2023-09-12T05:03:48;9.02;;;6.72;;
75295;SDS011;64623;44.738;37.804;2023-09-12T05:04:51;10.10;;;8.20;;
75295;SDS011;64623;44.738;37.804;2023-09-12T05:05:54;9.82;;;8.00;;
75295;SDS011;64623;44.738;37.804;2023-09-12T05:06:58;9.55;;;7.55;;
75295;SDS011;64623;44.738;37.804;2023-09-12T05:08:01;10.25;;;8.10;;
75295;SDS011;64623;44.738;37.804;2023-09-12T05:09:03;12.18;;;8.40;;
75295;SDS011;64623;44.738;37.804;2023-09-12T05:10:08;9.20;;;7.63;;
75295;SDS011;64623;44.738;37.804;2023-09-12T05:11:11;11.63;;;8.18;;
75295;SDS011;64623;44.738;37.804;2023-09-12T05:12:14;10.32;;;7.88;;
75295;SDS011;64623;44.738;37.804;2023-09-12T05:13:17;11.45;;;8.43;;
75295;SDS011;64623;44.738;37.804;2023-09-12T05:14:20;9.20;;;7.35;;
75295;SDS011;64623;44.738;37.804;2023-09-12T05:15:23;9.18;;;8.07;;
75295;SDS011;64623;44.738;37.804;2023-09-12T05:16:26;9.85;;;7.95;;
75295;SDS011;64623;44.738;37.804;2023-09-12T05:17:29;11.50;;;7.55;;
75295;SDS011;64623;44.738;37.804;2023-09-12T05:18:32;8.82;;;7.00;;
75295;SDS011;64623;44.738;37.804;2023-09-12T05:19:35;8.80;;;7.28;;
75295;SDS011;64623;44.738;37.804;2023-09-12T05:20:38;8.63;;;6.88;;
75295;SDS011;64623;44.738;37.804;2023-09-12T05:21:41;7.65;;;6.53;;
75295;SDS011;64623;44.738;37.804;2023-09-12T05:22:43;10.48;;;6.97;;
75295;SDS011;64623;44.738;37.804;2023-09-12T05:23:46;10.85;;;7.15;;
75295;SDS011;64623;44.738;37.804;2023-09-12T05:24:49;9.77;;;7.10;;
75295;SDS011;64623;44.738;37.804;2023-09-12T05:25:52;10.02;;;7.15;;
75295;SDS011;64623;44.738;37.804;2023-09-12T05:26:55;7.70;;;6.35;;
75295;SDS011;64623;44.738;37.804;2023-09-12T05:27:58;9.60;;;7.05;;
75295;SDS011;64623;44.738;37.804;2023-09-12T05:29:01;8.93;;;6.65;;
75295;SDS011;64623;44.738;37.804;2023-09-12T05:30:04;7.57;;;5.95;;
75295;SDS011;64623;44.738;37.804;2023-09-12T05:31:07;8.90;;;7.28;;
75295;SDS011;64623;44.738;37.804;2023-09-12T05:32:11;9.95;;;7.28;;
75295;SDS011;64623;44.738;37.804;2023-09-12T05:33:14;8.93;;;6.90;;
75295;SDS011;64623;44.738;37.804;2023-09-12T05:34:17;8.18;;;6.72;;
75295;SDS011;64623;44.738;37.804;2023-09-12T05:35:20;8.65;;;7.05;;
75295;SDS011;64623;44.738;37.804;2023-09-12T05:36:24;8.35;;;6.30;;
75295;SDS011;64623;44.738;37.804;2023-09-12T05:37:28;8.70;;;7.70;;
75295;SDS011;64623;44.738;37.804;2023-09-12T05:38:31;8.65;;;6.57;;
75295;SDS011;64623;44.738;37.804;2023-09-12T05:39:34;11.23;;;6.95;;
75295;SDS011;64623;44.738;37.804;2023-09-12T05:40:37;9.32;;;6.75;;
75295;SDS011;64623;44.738;37.804;2023-09-12T05:41:40;7.63;;;6.82;;
75295;SDS011;64623;44.738;37.804;2023-09-12T05:42:43;9.73;;;6.00;;
75295;SDS011;64623;44.738;37.804;2023-09-12T05:43:46;7.20;;;6.25;;
75295;SDS011;64623;44.738;37.804;2023-09-12T05:44:49;10.07;;;6.65;;
75295;SDS011;64623;44.738;37.804;2023-09-12T05:45:56;10.68;;;6.57;;
75295;SDS011;64623;44.738;37.804;2023-09-12T05:47:00;9.73;;;6.07;;
75295;SDS011;64623;44.738;37.804;2023-09-12T05:48:03;7.60;;;5.78;;
75295;SDS011;64623;44.738;37.804;2023-09-12T05:49:08;11.52;;;6.05;;
75295;SDS011;64623;44.738;37.804;2023-09-12T05:50:11;7.75;;;5.53;;
75295;SDS011;64623;44.738;37.804;2023-09-12T05:51:14;7.63;;;5.50;;
75295;SDS011;64623;44.738;37.804;2023-09-12T05:52:17;7.15;;;5.88;;
75295;SDS011;64623;44.738;37.804;2023-09-12T05:53:20;8.63;;;6.15;;
75295;SDS011;64623;44.738;37.804;2023-09-12T05:54:22;9.35;;;6.25;;
75295;SDS011;64623;44.738;37.804;2023-09-12T05:55:25;8.90;;;6.45;;
75295;SDS011;64623;44.738;37.804;2023-09-12T05:56:28;7.15;;;6.45;;
75295;SDS011;64623;44.738;37.804;2023-09-12T05:57:31;8.00;;;5.93;;
75295;SDS011;64623;44.738;37.804;2023-09-12T05:58:37;6.93;;;5.97;;
75295;SDS011;64623;44.738;37.804;2023-09-12T05:59:44;9.45;;;5.85;;
75295;SDS011;64623;44.738;37.804;2023-09-12T06:00:46;9.48;;;6.22;;
75295;SDS011;64623;44.738;37.804;2023-09-12T06:01:50;9.00;;;6.22;;
75295;SDS011;64623;44.738;37.804;2023-09-12T06:02:54;16.38;;;6.55;;
75295;SDS011;64623;44.738;37.804;2023-09-12T06:03:57;10.57;;;6.45;;
75295;SDS011;64623;44.738;37.804;2023-09-12T06:05:00;9.57;;;6.13;;
75295;SDS011;64623;44.738;37.804;2023-09-12T06:06:04;8.05;;;6.32;;
75295;SDS011;64623;44.738;37.804;2023-09-12T06:07:07;7.15;;;5.95;;
75295;SDS011;64623;44.738;37.804;2023-09-12T06:08:11;9.63;;;6.20;;
75295;SDS011;64623;44.738;37.804;2023-09-12T06:09:13;10.35;;;5.57;;
75295;SDS011;64623;44.738;37.804;2023-09-12T06:10:16;9.55;;;6.20;;
75295;SDS011;64623;44.738;37.804;2023-09-12T06:11:19;14.07;;;6.18;;
75295;SDS011;64623;44.738;37.804;2023-09-12T06:12:22;9.13;;;6.55;;
75295;SDS011;64623;44.738;37.804;2023-09-12T06:13:25;9.35;;;5.32;;
75295;SDS011;64623;44.738;37.804;2023-09-12T06:14:28;7.43;;;5.43;;
75295;SDS011;64623;44.738;37.804;2023-09-12T06:15:31;9.43;;;5.32;;
75295;SDS011;64623;44.738;37.804;2023-09-12T06:16:34;9.85;;;6.15;;
75295;SDS011;64623;44.738;37.804;2023-09-12T06:17:37;8.38;;;6.28;;
75295;SDS011;64623;44.738;37.804;2023-09-12T06:18:40;9.10;;;5.75;;